Nearby METAR Reports

 

KBGR - Bangor, Maine, USA
Distance from station: E 5mi, 8km
Updated: Wed, 27-Oct-2021 1:53am EDT
Overcast
Overcast
 Wind from NNE
Wind: NNE 21 mph , 33 km/h
Temperature: 50°F , 10°C
Wind Chill: 43°F , 6°C
Dew Point: 41°F , 5°C
Humidity: 71%
Barometer: 29.74 inHg , 1007.1 hPa
Clouds: Overcast
Visibility: 10 miles , 16 km
Cloud details: Overcast 3600 ft
2021/10/27 05:53 KBGR 270553Z 03018KT 10SM OVC036 10/05 A2974 RMK AO2 PK WND 03030/0536 SLP072 T01000050 10122 20100 56005
KBHB - Bar Harbor, Maine, USA
Distance from station: SE 37mi, 59km
Updated: Wed, 27-Oct-2021 1:56am EDT
Light rain, Overcast
Light rain, Overcast
 Wind from NNE
Wind: NNE 25 mph , 41 km/h, Gust: 31 mph , 50 km/h
Temperature: 48°F , 9°C
Wind Chill: 40°F , 4°C
Dew Point: 43°F , 6°C
Humidity: 82%
Barometer: 29.67 inHg , 1004.7 hPa
Summary: Light rain
Clouds: Overcast
Visibility: 10 miles , 16 km
Cloud details: Mostly cloudy 3000 ft
Overcast 3700 ft
2021/10/27 05:56 KBHB 270556Z AUTO 03022G27KT 10SM -RA BKN030 OVC037 09/06 A2967 RMK AO2 PK WND 04029/0545 SLP048 P0001 60002 T00890061 10111 20089 58008
 
KAUG - Augusta, Maine, USA
Distance from station: SW 55mi, 89km
Updated: Wed, 27-Oct-2021 1:53am EDT
Overcast
Overcast
 Wind from NNE
Wind: NNE 21 mph , 33 km/h, Gust: 35 mph , 56 km/h
Temperature: 48°F , 9°C
Wind Chill: 41°F , 5°C
Dew Point: 43°F , 6°C
Humidity: 82%
Barometer: 29.69 inHg , 1005.4 hPa
Clouds: Overcast
Visibility: 10 miles , 16 km
Cloud details: Few Clouds 2200 ft
Mostly cloudy 2900 ft
Overcast 4900 ft
2021/10/27 05:53 KAUG 270553Z AUTO 02018G30KT 10SM FEW022 BKN029 OVC049 09/06 A2969 RMK AO2 PK WND 03032/0511 RAE32 SLP054 P0000 60000 T00940056 10117 20089 56005
KGNR - Greenville, Maine, USA
Distance from station: NW 55mi, 89km
Updated: Wed, 27-Oct-2021 1:56am EDT

 Wind from NE
Wind: NE 16 mph , 26 km/h, Gust: 22 mph , 35 km/h
Temperature: 45°F , 7°C
Wind Chill: 38°F , 3°C
Dew Point: 34°F , 1°C
Humidity: 66%
Barometer: 29.79 inHg , 1008.8 hPa
2021/10/27 05:56 KGNR 270556Z AUTO 04014G19KT 07/01 A2979 RMK AO1 SLP097 T00720011 10100 20072 56003
 
KMLT - Millinocket, Maine, USA
Distance from station: N 59mi, 95km
Updated: Wed, 27-Oct-2021 2:05am EDT
Overcast
Overcast
 Wind from NNE
Wind: NNE 12 mph , 19 km/h, Gust: 20 mph , 31 km/h
Temperature: 45°F , 7°C
Wind Chill: 39°F , 4°C
Dew Point: 37°F , 3°C
Humidity: 76%
Barometer: 29.87 inHg , 1011.5 hPa
Clouds: Overcast
Visibility: 10 miles , 16 km
Cloud details: Few Clouds 2500 ft
Overcast 7500 ft
2021/10/27 06:05 KMLT 270605Z AUTO 03010G17KT 360V080 10SM FEW025 OVC075 07/03 A2987 RMK AO2 T00720028 TSNO
KLEW - Auburn/Lewiston, Maine, USA
Distance from station: SW 86mi, 138km
Updated: Wed, 27-Oct-2021 1:56am EDT
Light rain, Overcast
Light rain, Overcast
 Wind from N
Wind: N 18 mph , 30 km/h, Gust: 29 mph , 46 km/h
Temperature: 46°F , 8°C
Wind Chill: 39°F , 4°C
Dew Point: 45°F , 7°C
Humidity: 93%
Barometer: 29.66 inHg , 1004.4 hPa
Summary: Light rain
Clouds: Overcast
Visibility: 10 miles , 16 km
Cloud details: Mostly cloudy 1600 ft
Overcast 2300 ft
2021/10/27 05:56 KLEW 270556Z AUTO 01016G25KT 10SM -RA BKN016 OVC023 08/07 A2966 RMK AO2 PK WND 01026/0525 SLP049 P0000 60018 T00830072 10094 20083 56005
 
KHUL - Houlton, Maine, USA
Distance from station: NNE 105mi, 169km
Updated: Wed, 27-Oct-2021 1:53am EDT
Clear
Clear
 Wind from NNE
Wind: NNE 10 mph , 17 km/h
Temperature: 41°F , 5°C
Wind Chill: 35°F , 2°C
Dew Point: 36°F , 2°C
Humidity: 81%
Barometer: 29.89 inHg , 1012.2 hPa
Clouds: Clear
Visibility: 10 miles , 16 km
2021/10/27 05:53 KHUL 270553Z AUTO 02009KT 10SM CLR 05/02 A2989 RMK AO2 SLP124 T00500017 10089 20050 55003
KPWM - Portland, Maine, USA
Distance from station: SW 105mi, 170km
Updated: Wed, 27-Oct-2021 1:51am EDT
Light rain, Overcast
Light rain, Overcast
 Wind from N
Wind: N 29 mph , 46 km/h, Gust: 35 mph , 56 km/h
Temperature: 48°F , 9°C
Wind Chill: 39°F , 4°C
Dew Point: 46°F , 8°C
Humidity: 94%
Barometer: 29.56 inHg , 1001 hPa
Summary: Light rain
Clouds: Overcast
Visibility: 10 miles , 16 km
Cloud details: Mostly cloudy 1900 ft
Overcast 2400 ft
2021/10/27 05:51 KPWM 270551Z AUTO 01025G30KT 10SM -RA BKN019 OVC024 09/08 A2956 RMK AO2 PK WND 01031/0540 SLP010 P0003 60020 T00940078 10094 20089 56018
 
KBML - Berlin, New Hampshire, USA
Distance from station: W 113mi, 181km
Updated: Wed, 27-Oct-2021 1:52am EDT
Overcast
Overcast
 Wind from NNE
Wind: NNE 8 mph , 13 km/h
Temperature: 48°F , 9°C
Wind Chill: 44°F , 7°C
Dew Point: 37°F , 3°C
Humidity: 66%
Barometer: 29.74 inHg , 1007.1 hPa
Clouds: Overcast
Visibility: 10 miles , 16 km
Cloud details: Overcast 4100 ft
2021/10/27 05:52 KBML 270552Z AUTO 03007KT 10SM OVC041 09/03 A2974 RMK AO2 SLP075 T00940028 10100 20094 55004
KIZG - Fryeburg, Maine, USA
Distance from station: WSW 116mi, 186km
Updated: Wed, 27-Oct-2021 1:54am EDT
Light rain, Overcast
Light rain, Overcast
 Wind from N
Wind: N 9 mph , 15 km/h, Gust: 21 mph , 33 km/h
Temperature: 48°F , 9°C
Wind Chill: 44°F , 7°C
Dew Point: 45°F , 7°C
Humidity: 87%
Barometer: 29.68 inHg , 1005.1 hPa
Summary: Light rain
Clouds: Overcast
Visibility: 10 miles , 16 km
Cloud details: Overcast 2500 ft
2021/10/27 05:54 KIZG 270554Z AUTO 01008G18KT 340V040 10SM -RA OVC025 09/07 A2968 RMK AO2 SLP053 P0004 60021 T00890067 10094 20083 55006
 
KMWN - Mount Washington, New Hampshire, USA
Distance from station: WSW 123mi, 198km
Updated: Wed, 27-Oct-2021 1:53am EDT
Fog, Overcast
Fog, Overcast
 Wind from ENE
Wind: ENE 76 mph , 122 km/h
Temperature: 36°F , 2°C
Wind Chill: 17°F , -8°C
Dew Point: 36°F , 2°C
Humidity: 100%
Summary: Fog
Clouds: Overcast
Visibility: 0 miles , 0 km
Cloud details: Overcast 0 ft
2021/10/27 05:53 KMWN 270553Z 06066KT 0SM FG VV000 02/02 RMK 60042 10018 20006
KCAR - Caribou, Maine, USA
Distance from station: NNE 148mi, 238km
Updated: Wed, 27-Oct-2021 1:54am EDT
Clear
Clear
 Wind from N
Wind: N 10 mph , 17 km/h
Temperature: 37°F , 3°C
Wind Chill: 30°F , -1°C
Dew Point: 32°F , 0°C
Humidity: 81%
Barometer: 29.94 inHg , 1013.9 hPa
Clouds: Clear
Visibility: 10 miles , 16 km
2021/10/27 05:54 KCAR 270554Z AUTO 01009KT 10SM CLR 03/00 A2994 RMK AO2 SLP145 T00330000 10083 20033 56008